sensor_id;sensor_type;location;lat;lon;timestamp;P1;durP1;ratioP1;P2;durP2;ratioP2
34924;SDS011;21130;51.728;8.748;2023-04-01T00:00:55;0.98;;;0.60;;
34924;SDS011;21130;51.728;8.748;2023-04-01T00:03:23;1.40;;;0.60;;
34924;SDS011;21130;51.728;8.748;2023-04-01T00:05:51;2.50;;;0.70;;
34924;SDS011;21130;51.728;8.748;2023-04-01T00:08:18;0.80;;;0.70;;
34924;SDS011;21130;51.728;8.748;2023-04-01T00:10:46;3.95;;;0.70;;
34924;SDS011;21130;51.728;8.748;2023-04-01T00:13:13;1.55;;;0.68;;
34924;SDS011;21130;51.728;8.748;2023-04-01T00:15:41;1.17;;;0.60;;
34924;SDS011;21130;51.728;8.748;2023-04-01T00:18:08;1.08;;;0.60;;
34924;SDS011;21130;51.728;8.748;2023-04-01T00:20:35;0.63;;;0.52;;
34924;SDS011;21130;51.728;8.748;2023-04-01T00:23:02;1.92;;;0.77;;
34924;SDS011;21130;51.728;8.748;2023-04-01T00:25:30;1.25;;;0.50;;
34924;SDS011;21130;51.728;8.748;2023-04-01T00:27:56;2.45;;;0.57;;
34924;SDS011;21130;51.728;8.748;2023-04-01T00:30:23;1.17;;;0.68;;
34924;SDS011;21130;51.728;8.748;2023-04-01T00:32:52;1.38;;;0.57;;
34924;SDS011;21130;51.728;8.748;2023-04-01T00:35:18;1.25;;;0.60;;
34924;SDS011;21130;51.728;8.748;2023-04-01T00:37:45;2.05;;;0.88;;
34924;SDS011;21130;51.728;8.748;2023-04-01T00:40:20;1.88;;;0.50;;
34924;SDS011;21130;51.728;8.748;2023-04-01T00:42:51;1.30;;;0.70;;
34924;SDS011;21130;51.728;8.748;2023-04-01T00:48:09;2.38;;;0.60;;
34924;SDS011;21130;51.728;8.748;2023-04-01T00:50:39;3.03;;;0.80;;
34924;SDS011;21130;51.728;8.748;2023-04-01T00:53:08;1.52;;;0.50;;
34924;SDS011;21130;51.728;8.748;2023-04-01T00:55:36;1.63;;;0.47;;
34924;SDS011;21130;51.728;8.748;2023-04-01T00:58:08;1.23;;;0.60;;
34924;SDS011;21130;51.728;8.748;2023-04-01T01:00:39;1.55;;;0.70;;
34924;SDS011;21130;51.728;8.748;2023-04-01T01:03:07;1.65;;;0.73;;
34924;SDS011;21130;51.728;8.748;2023-04-01T01:05:37;1.17;;;0.43;;
34924;SDS011;21130;51.728;8.748;2023-04-01T01:08:15;1.88;;;0.60;;
34924;SDS011;21130;51.728;8.748;2023-04-01T01:11:08;0.88;;;0.55;;
34924;SDS011;21130;51.728;8.748;2023-04-01T01:13:56;2.15;;;0.60;;
34924;SDS011;21130;51.728;8.748;2023-04-01T01:16:28;2.10;;;0.50;;
34924;SDS011;21130;51.728;8.748;2023-04-01T01:19:02;1.73;;;0.50;;
34924;SDS011;21130;51.728;8.748;2023-04-01T01:27:25;1.05;;;0.52;;
34924;SDS011;21130;51.728;8.748;2023-04-01T01:29:57;0.90;;;0.50;;
34924;SDS011;21130;51.728;8.748;2023-04-01T01:32:38;0.85;;;0.50;;
34924;SDS011;21130;51.728;8.748;2023-04-01T01:35:23;2.50;;;0.50;;
34924;SDS011;21130;51.728;8.748;2023-04-01T01:37:55;1.05;;;0.60;;
34924;SDS011;21130;51.728;8.748;2023-04-01T01:40:25;1.38;;;0.52;;
34924;SDS011;21130;51.728;8.748;2023-04-01T01:42:54;2.15;;;0.52;;
34924;SDS011;21130;51.728;8.748;2023-04-01T01:45:24;1.40;;;0.60;;
34924;SDS011;21130;51.728;8.748;2023-04-01T01:47:53;1.63;;;0.60;;
34924;SDS011;21130;51.728;8.748;2023-04-01T01:50:24;2.08;;;0.50;;
34924;SDS011;21130;51.728;8.748;2023-04-01T01:52:59;2.22;;;0.70;;
34924;SDS011;21130;51.728;8.748;2023-04-01T01:55:27;2.00;;;0.75;;
34924;SDS011;21130;51.728;8.748;2023-04-01T01:57:56;2.20;;;0.70;;
34924;SDS011;21130;51.728;8.748;2023-04-01T02:00:25;1.55;;;0.50;;
34924;SDS011;21130;51.728;8.748;2023-04-01T02:02:52;1.75;;;0.43;;
34924;SDS011;21130;51.728;8.748;2023-04-01T02:05:20;4.03;;;0.63;;
34924;SDS011;21130;51.728;8.748;2023-04-01T02:07:52;1.05;;;0.50;;
34924;SDS011;21130;51.728;8.748;2023-04-01T02:10:24;2.15;;;0.70;;
34924;SDS011;21130;51.728;8.748;2023-04-01T02:12:53;1.63;;;0.52;;
34924;SDS011;21130;51.728;8.748;2023-04-01T02:15:25;1.55;;;0.47;;
34924;SDS011;21130;51.728;8.748;2023-04-01T02:17:58;1.67;;;0.50;;
34924;SDS011;21130;51.728;8.748;2023-04-01T02:20:24;1.58;;;0.50;;
34924;SDS011;21130;51.728;8.748;2023-04-01T02:22:56;0.40;;;0.35;;
34924;SDS011;21130;51.728;8.748;2023-04-01T02:25:25;0.57;;;0.50;;
34924;SDS011;21130;51.728;8.748;2023-04-01T02:27:54;2.33;;;0.50;;
34924;SDS011;21130;51.728;8.748;2023-04-01T02:30:23;1.73;;;0.30;;
34924;SDS011;21130;51.728;8.748;2023-04-01T02:32:52;2.22;;;0.40;;
34924;SDS011;21130;51.728;8.748;2023-04-01T02:35:20;0.82;;;0.43;;
34924;SDS011;21130;51.728;8.748;2023-04-01T02:37:48;1.15;;;0.60;;
34924;SDS011;21130;51.728;8.748;2023-04-01T02:40:17;0.30;;;0.30;;
34924;SDS011;21130;51.728;8.748;2023-04-01T02:42:44;1.15;;;0.45;;
34924;SDS011;21130;51.728;8.748;2023-04-01T02:45:11;0.43;;;0.40;;
34924;SDS011;21130;51.728;8.748;2023-04-01T02:47:39;1.50;;;0.40;;
34924;SDS011;21130;51.728;8.748;2023-04-01T02:50:06;0.40;;;0.38;;
34924;SDS011;21130;51.728;8.748;2023-04-01T02:52:33;0.40;;;0.30;;
34924;SDS011;21130;51.728;8.748;2023-04-01T02:54:59;2.05;;;0.50;;
34924;SDS011;21130;51.728;8.748;2023-04-01T02:57:27;0.50;;;0.50;;
34924;SDS011;21130;51.728;8.748;2023-04-01T02:59:54;1.00;;;0.40;;
34924;SDS011;21130;51.728;8.748;2023-04-01T03:02:20;0.65;;;0.60;;
34924;SDS011;21130;51.728;8.748;2023-04-01T03:04:47;0.43;;;0.40;;
34924;SDS011;21130;51.728;8.748;2023-04-01T03:07:13;0.68;;;0.30;;
34924;SDS011;21130;51.728;8.748;2023-04-01T03:09:40;0.73;;;0.40;;
34924;SDS011;21130;51.728;8.748;2023-04-01T03:12:06;1.15;;;0.45;;
34924;SDS011;21130;51.728;8.748;2023-04-01T03:14:34;1.23;;;0.40;;
34924;SDS011;21130;51.728;8.748;2023-04-01T03:17:00;0.35;;;0.30;;
34924;SDS011;21130;51.728;8.748;2023-04-01T03:19:27;1.33;;;0.50;;
34924;SDS011;21130;51.728;8.748;2023-04-01T03:21:53;0.43;;;0.38;;
34924;SDS011;21130;51.728;8.748;2023-04-01T03:24:20;0.38;;;0.30;;
34924;SDS011;21130;51.728;8.748;2023-04-01T03:26:46;1.38;;;0.63;;
34924;SDS011;21130;51.728;8.748;2023-04-01T03:29:13;0.47;;;0.38;;
34924;SDS011;21130;51.728;8.748;2023-04-01T03:31:42;0.57;;;0.28;;
34924;SDS011;21130;51.728;8.748;2023-04-01T03:34:08;0.82;;;0.45;;
34924;SDS011;21130;51.728;8.748;2023-04-01T03:36:35;2.05;;;0.30;;
34924;SDS011;21130;51.728;8.748;2023-04-01T03:39:02;0.38;;;0.20;;
34924;SDS011;21130;51.728;8.748;2023-04-01T03:41:29;1.20;;;0.30;;
34924;SDS011;21130;51.728;8.748;2023-04-01T03:43:56;0.50;;;0.40;;
34924;SDS011;21130;51.728;8.748;2023-04-01T03:46:22;0.82;;;0.52;;
34924;SDS011;21130;51.728;8.748;2023-04-01T03:48:50;0.93;;;0.30;;
34924;SDS011;21130;51.728;8.748;2023-04-01T03:51:17;0.65;;;0.32;;
34924;SDS011;21130;51.728;8.748;2023-04-01T03:53:43;1.48;;;0.30;;
34924;SDS011;21130;51.728;8.748;2023-04-01T03:56:09;0.30;;;0.30;;
34924;SDS011;21130;51.728;8.748;2023-04-01T03:58:36;0.88;;;0.30;;
34924;SDS011;21130;51.728;8.748;2023-04-01T04:01:12;0.35;;;0.35;;
34924;SDS011;21130;51.728;8.748;2023-04-01T04:03:39;0.38;;;0.20;;
34924;SDS011;21130;51.728;8.748;2023-04-01T04:06:09;0.73;;;0.50;;
34924;SDS011;21130;51.728;8.748;2023-04-01T04:08:37;0.95;;;0.35;;
34924;SDS011;21130;51.728;8.748;2023-04-01T04:11:03;0.40;;;0.40;;
34924;SDS011;21130;51.728;8.748;2023-04-01T04:13:31;0.30;;;0.30;;
34924;SDS011;21130;51.728;8.748;2023-04-01T04:15:58;0.98;;;0.40;;
34924;SDS011;21130;51.728;8.748;2023-04-01T04:18:24;0.65;;;0.30;;
34924;SDS011;21130;51.728;8.748;2023-04-01T04:20:50;0.30;;;0.30;;
34924;SDS011;21130;51.728;8.748;2023-04-01T04:23:18;0.73;;;0.32;;
34924;SDS011;21130;51.728;8.748;2023-04-01T04:25:52;0.43;;;0.40;;
34924;SDS011;21130;51.728;8.748;2023-04-01T04:28:19;0.28;;;0.25;;
34924;SDS011;21130;51.728;8.748;2023-04-01T04:30:46;0.65;;;0.38;;
34924;SDS011;21130;51.728;8.748;2023-04-01T04:33:12;0.35;;;0.30;;
34924;SDS011;21130;51.728;8.748;2023-04-01T04:35:39;0.20;;;0.20;;
34924;SDS011;21130;51.728;8.748;2023-04-01T04:38:05;0.52;;;0.30;;
34924;SDS011;21130;51.728;8.748;2023-04-01T04:40:33;0.65;;;0.30;;
34924;SDS011;21130;51.728;8.748;2023-04-01T04:43:02;1.33;;;0.40;;
34924;SDS011;21130;51.728;8.748;2023-04-01T04:45:28;0.47;;;0.47;;
34924;SDS011;21130;51.728;8.748;2023-04-01T04:47:55;0.52;;;0.30;;
34924;SDS011;21130;51.728;8.748;2023-04-01T04:50:21;0.73;;;0.40;;
34924;SDS011;21130;51.728;8.748;2023-04-01T04:52:48;0.40;;;0.40;;
34924;SDS011;21130;51.728;8.748;2023-04-01T04:55:15;0.50;;;0.40;;
34924;SDS011;21130;51.728;8.748;2023-04-01T04:57:42;1.60;;;0.43;;
34924;SDS011;21130;51.728;8.748;2023-04-01T05:00:09;0.75;;;0.35;;
34924;SDS011;21130;51.728;8.748;2023-04-01T05:02:37;0.45;;;0.45;;
34924;SDS011;21130;51.728;8.748;2023-04-01T05:05:04;0.63;;;0.40;;
34924;SDS011;21130;51.728;8.748;2023-04-01T05:07:31;2.28;;;0.40;;
34924;SDS011;21130;51.728;8.748;2023-04-01T05:09:58;0.43;;;0.30;;
34924;SDS011;21130;51.728;8.748;2023-04-01T05:12:25;0.30;;;0.30;;
34924;SDS011;21130;51.728;8.748;2023-04-01T05:14:53;0.50;;;0.50;;
34924;SDS011;21130;51.728;8.748;2023-04-01T05:17:20;0.65;;;0.40;;
34924;SDS011;21130;51.728;8.748;2023-04-01T05:19:46;0.68;;;0.30;;
34924;SDS011;21130;51.728;8.748;2023-04-01T05:22:13;0.75;;;0.50;;
34924;SDS011;21130;51.728;8.748;2023-04-01T05:24:39;0.40;;;0.30;;
34924;SDS011;21130;51.728;8.748;2023-04-01T05:27:05;0.93;;;0.40;;
34924;SDS011;21130;51.728;8.748;2023-04-01T05:29:32;0.70;;;0.40;;
34924;SDS011;21130;51.728;8.748;2023-04-01T05:32:01;1.58;;;0.40;;
34924;SDS011;21130;51.728;8.748;2023-04-01T05:34:28;0.70;;;0.47;;
34924;SDS011;21130;51.728;8.748;2023-04-01T05:36:54;2.35;;;0.28;;
34924;SDS011;21130;51.728;8.748;2023-04-01T05:39:20;0.50;;;0.35;;
34924;SDS011;21130;51.728;8.748;2023-04-01T05:41:47;0.40;;;0.40;;
34924;SDS011;21130;51.728;8.748;2023-04-01T05:44:13;0.25;;;0.25;;
34924;SDS011;21130;51.728;8.748;2023-04-01T05:46:40;0.40;;;0.30;;
34924;SDS011;21130;51.728;8.748;2023-04-01T05:49:08;0.30;;;0.30;;
34924;SDS011;21130;51.728;8.748;2023-04-01T05:51:34;0.32;;;0.30;;
34924;SDS011;21130;51.728;8.748;2023-04-01T05:54:00;1.05;;;0.30;;
34924;SDS011;21130;51.728;8.748;2023-04-01T05:56:27;0.30;;;0.30;;
34924;SDS011;21130;51.728;8.748;2023-04-01T05:58:53;0.47;;;0.35;;
34924;SDS011;21130;51.728;8.748;2023-04-01T06:01:20;0.40;;;0.30;;
34924;SDS011;21130;51.728;8.748;2023-04-01T06:03:46;0.30;;;0.30;;
34924;SDS011;21130;51.728;8.748;2023-04-01T06:06:15;0.40;;;0.40;;
34924;SDS011;21130;51.728;8.748;2023-04-01T06:08:45;0.28;;;0.28;;
34924;SDS011;21130;51.728;8.748;2023-04-01T06:11:17;0.30;;;0.30;;
34924;SDS011;21130;51.728;8.748;2023-04-01T06:13:54;0.82;;;0.40;;
34924;SDS011;21130;51.728;8.748;2023-04-01T06:16:37;0.35;;;0.32;;
34924;SDS011;21130;51.728;8.748;2023-04-01T06:19:18;0.85;;;0.30;;
34924;SDS011;21130;51.728;8.748;2023-04-01T06:22:08;0.38;;;0.35;;
34924;SDS011;21130;51.728;8.748;2023-04-01T06:24:50;0.30;;;0.30;;
34924;SDS011;21130;51.728;8.748;2023-04-01T06:27:36;0.55;;;0.40;;
34924;SDS011;21130;51.728;8.748;2023-04-01T06:30:20;0.43;;;0.43;;
34924;SDS011;21130;51.728;8.748;2023-04-01T06:33:08;0.30;;;0.30;;
34924;SDS011;21130;51.728;8.748;2023-04-01T06:38:42;1.10;;;0.38;;
34924;SDS011;21130;51.728;8.748;2023-04-01T06:41:40;0.30;;;0.30;;
34924;SDS011;21130;51.728;8.748;2023-04-01T06:44:20;1.85;;;0.50;;
34924;SDS011;21130;51.728;8.748;2023-04-01T06:46:57;0.38;;;0.38;;
34924;SDS011;21130;51.728;8.748;2023-04-01T06:49:33;0.35;;;0.35;;
34924;SDS011;21130;51.728;8.748;2023-04-01T06:52:09;1.27;;;0.30;;
34924;SDS011;21130;51.728;8.748;2023-04-01T06:54:46;0.55;;;0.40;;
34924;SDS011;21130;51.728;8.748;2023-04-01T06:57:19;0.63;;;0.50;;
34924;SDS011;21130;51.728;8.748;2023-04-01T06:59:49;0.70;;;0.40;;
34924;SDS011;21130;51.728;8.748;2023-04-01T07:02:22;0.40;;;0.40;;
34924;SDS011;21130;51.728;8.748;2023-04-01T07:04:54;0.35;;;0.30;;
34924;SDS011;21130;51.728;8.748;2023-04-01T07:07:27;0.57;;;0.40;;
34924;SDS011;21130;51.728;8.748;2023-04-01T07:10:03;0.40;;;0.40;;
34924;SDS011;21130;51.728;8.748;2023-04-01T07:12:37;0.47;;;0.30;;
34924;SDS011;21130;51.728;8.748;2023-04-01T07:15:12;0.40;;;0.30;;
34924;SDS011;21130;51.728;8.748;2023-04-01T07:17:44;0.52;;;0.40;;
34924;SDS011;21130;51.728;8.748;2023-04-01T07:20:13;0.63;;;0.43;;
34924;SDS011;21130;51.728;8.748;2023-04-01T07:22:46;0.73;;;0.50;;
34924;SDS011;21130;51.728;8.748;2023-04-01T07:25:18;0.95;;;0.40;;
34924;SDS011;21130;51.728;8.748;2023-04-01T07:27:47;0.50;;;0.47;;
34924;SDS011;21130;51.728;8.748;2023-04-01T07:30:14;0.40;;;0.40;;
34924;SDS011;21130;51.728;8.748;2023-04-01T07:32:42;0.47;;;0.47;;
34924;SDS011;21130;51.728;8.748;2023-04-01T07:35:17;0.40;;;0.40;;
34924;SDS011;21130;51.728;8.748;2023-04-01T07:37:57;1.35;;;0.50;;
34924;SDS011;21130;51.728;8.748;2023-04-01T07:40:34;0.65;;;0.60;;
34924;SDS011;21130;51.728;8.748;2023-04-01T07:43:25;0.60;;;0.52;;
34924;SDS011;21130;51.728;8.748;2023-04-01T07:46:07;1.42;;;0.60;;
34924;SDS011;21130;51.728;8.748;2023-04-01T07:48:43;0.95;;;0.50;;
34924;SDS011;21130;51.728;8.748;2023-04-01T07:51:35;0.40;;;0.40;;
34924;SDS011;21130;51.728;8.748;2023-04-01T07:54:08;0.50;;;0.50;;
34924;SDS011;21130;51.728;8.748;2023-04-01T07:56:44;0.40;;;0.35;;
34924;SDS011;21130;51.728;8.748;2023-04-01T07:59:18;1.38;;;0.57;;
34924;SDS011;21130;51.728;8.748;2023-04-01T08:01:53;0.40;;;0.38;;
34924;SDS011;21130;51.728;8.748;2023-04-01T08:04:28;0.75;;;0.50;;
34924;SDS011;21130;51.728;8.748;2023-04-01T08:07:08;0.30;;;0.30;;
34924;SDS011;21130;51.728;8.748;2023-04-01T08:09:41;0.98;;;0.40;;
34924;SDS011;21130;51.728;8.748;2023-04-01T08:12:19;1.15;;;0.50;;
34924;SDS011;21130;51.728;8.748;2023-04-01T08:14:56;0.40;;;0.40;;
34924;SDS011;21130;51.728;8.748;2023-04-01T08:17:31;0.35;;;0.35;;
34924;SDS011;21130;51.728;8.748;2023-04-01T08:20:14;0.43;;;0.40;;
34924;SDS011;21130;51.728;8.748;2023-04-01T08:22:49;0.40;;;0.40;;
34924;SDS011;21130;51.728;8.748;2023-04-01T08:25:21;0.40;;;0.40;;
34924;SDS011;21130;51.728;8.748;2023-04-01T08:27:53;0.50;;;0.50;;
34924;SDS011;21130;51.728;8.748;2023-04-01T08:30:24;0.73;;;0.47;;
34924;SDS011;21130;51.728;8.748;2023-04-01T08:32:53;0.30;;;0.30;;
34924;SDS011;21130;51.728;8.748;2023-04-01T08:35:25;2.13;;;0.30;;
34924;SDS011;21130;51.728;8.748;2023-04-01T08:44:20;0.45;;;0.40;;
34924;SDS011;21130;51.728;8.748;2023-04-01T08:47:09;0.30;;;0.30;;
34924;SDS011;21130;51.728;8.748;2023-04-01T08:50:06;0.40;;;0.40;;
34924;SDS011;21130;51.728;8.748;2023-04-01T08:53:06;0.43;;;0.40;;
34924;SDS011;21130;51.728;8.748;2023-04-01T08:55:47;0.98;;;0.40;;
34924;SDS011;21130;51.728;8.748;2023-04-01T08:58:34;3.78;;;0.50;;
34924;SDS011;21130;51.728;8.748;2023-04-01T09:01:20;0.30;;;0.30;;
34924;SDS011;21130;51.728;8.748;2023-04-01T09:03:59;0.30;;;0.30;;
34924;SDS011;21130;51.728;8.748;2023-04-01T09:06:41;0.40;;;0.40;;
34924;SDS011;21130;51.728;8.748;2023-04-01T09:09:37;0.40;;;0.40;;
34924;SDS011;21130;51.728;8.748;2023-04-01T09:12:26;0.35;;;0.35;;
34924;SDS011;21130;51.728;8.748;2023-04-01T09:15:27;0.40;;;0.40;;
34924;SDS011;21130;51.728;8.748;2023-04-01T09:18:11;0.32;;;0.32;;
34924;SDS011;21130;51.728;8.748;2023-04-01T09:20:46;0.68;;;0.30;;
34924;SDS011;21130;51.728;8.748;2023-04-01T09:23:28;0.20;;;0.20;;
34924;SDS011;21130;51.728;8.748;2023-04-01T09:26:29;0.30;;;0.30;;
34924;SDS011;21130;51.728;8.748;2023-04-01T09:29:11;0.30;;;0.30;;
34924;SDS011;21130;51.728;8.748;2023-04-01T09:32:00;0.30;;;0.30;;
34924;SDS011;21130;51.728;8.748;2023-04-01T09:37:45;0.68;;;0.57;;
34924;SDS011;21130;51.728;8.748;2023-04-01T09:40:23;0.50;;;0.50;;
34924;SDS011;21130;51.728;8.748;2023-04-01T09:45:53;1.58;;;0.30;;
34924;SDS011;21130;51.728;8.748;2023-04-01T09:48:34;0.25;;;0.25;;
34924;SDS011;21130;51.728;8.748;2023-04-01T09:51:17;0.50;;;0.40;;
34924;SDS011;21130;51.728;8.748;2023-04-01T09:53:59;0.75;;;0.30;;
34924;SDS011;21130;51.728;8.748;2023-04-01T10:00:03;0.98;;;0.40;;
34924;SDS011;21130;51.728;8.748;2023-04-01T10:02:47;1.33;;;0.43;;
34924;SDS011;21130;51.728;8.748;2023-04-01T10:05:51;0.75;;;0.57;;
34924;SDS011;21130;51.728;8.748;2023-04-01T10:08:38;0.80;;;0.40;;
34924;SDS011;21130;51.728;8.748;2023-04-01T10:11:25;1.27;;;0.50;;
34924;SDS011;21130;51.728;8.748;2023-04-01T10:14:18;1.40;;;0.22;;
34924;SDS011;21130;51.728;8.748;2023-04-01T10:17:19;1.55;;;0.47;;
34924;SDS011;21130;51.728;8.748;2023-04-01T10:20:29;0.35;;;0.35;;
34924;SDS011;21130;51.728;8.748;2023-04-01T10:23:33;0.60;;;0.60;;
34924;SDS011;21130;51.728;8.748;2023-04-01T10:26:25;1.10;;;1.00;;
34924;SDS011;21130;51.728;8.748;2023-04-01T10:29:18;1.45;;;0.40;;
34924;SDS011;21130;51.728;8.748;2023-04-01T10:38:22;0.30;;;0.30;;
34924;SDS011;21130;51.728;8.748;2023-04-01T10:44:32;0.43;;;0.40;;
34924;SDS011;21130;51.728;8.748;2023-04-01T10:50:47;0.43;;;0.40;;
34924;SDS011;21130;51.728;8.748;2023-04-01T10:53:43;0.47;;;0.47;;
34924;SDS011;21130;51.728;8.748;2023-04-01T10:56:25;0.50;;;0.50;;
34924;SDS011;21130;51.728;8.748;2023-04-01T10:59:18;1.10;;;0.30;;
34924;SDS011;21130;51.728;8.748;2023-04-01T11:05:42;1.02;;;0.80;;
34924;SDS011;21130;51.728;8.748;2023-04-01T11:08:44;0.50;;;0.50;;
34924;SDS011;21130;51.728;8.748;2023-04-01T11:11:37;0.70;;;0.70;;
34924;SDS011;21130;51.728;8.748;2023-04-01T11:14:37;2.25;;;0.80;;
34924;SDS011;21130;51.728;8.748;2023-04-01T11:17:25;1.33;;;0.40;;
34924;SDS011;21130;51.728;8.748;2023-04-01T11:20:13;1.02;;;0.60;;
34924;SDS011;21130;51.728;8.748;2023-04-01T11:22:56;0.40;;;0.40;;
34924;SDS011;21130;51.728;8.748;2023-04-01T11:25:42;0.77;;;0.55;;
34924;SDS011;21130;51.728;8.748;2023-04-01T11:28:24;0.55;;;0.55;;
34924;SDS011;21130;51.728;8.748;2023-04-01T11:31:07;1.15;;;0.70;;
34924;SDS011;21130;51.728;8.748;2023-04-01T11:33:49;1.02;;;0.73;;
34924;SDS011;21130;51.728;8.748;2023-04-01T11:36:22;0.88;;;0.70;;
34924;SDS011;21130;51.728;8.748;2023-04-01T11:38:57;0.95;;;0.60;;
34924;SDS011;21130;51.728;8.748;2023-04-01T11:41:36;0.70;;;0.70;;
34924;SDS011;21130;51.728;8.748;2023-04-01T11:44:14;0.75;;;0.75;;
34924;SDS011;21130;51.728;8.748;2023-04-01T11:46:51;0.77;;;0.68;;
34924;SDS011;21130;51.728;8.748;2023-04-01T11:49:29;0.70;;;0.70;;
34924;SDS011;21130;51.728;8.748;2023-04-01T11:52:13;0.95;;;0.85;;
34924;SDS011;21130;51.728;8.748;2023-04-01T11:55:02;1.17;;;0.80;;
34924;SDS011;21130;51.728;8.748;2023-04-01T11:57:51;0.63;;;0.63;;
34924;SDS011;21130;51.728;8.748;2023-04-01T12:00:44;0.75;;;0.60;;
34924;SDS011;21130;51.728;8.748;2023-04-01T12:03:30;0.38;;;0.38;;
34924;SDS011;21130;51.728;8.748;2023-04-01T12:06:08;0.40;;;0.40;;
34924;SDS011;21130;51.728;8.748;2023-04-01T12:08:41;0.40;;;0.40;;
34924;SDS011;21130;51.728;8.748;2023-04-01T12:11:15;0.50;;;0.50;;
34924;SDS011;21130;51.728;8.748;2023-04-01T12:13:48;0.68;;;0.50;;
34924;SDS011;21130;51.728;8.748;2023-04-01T12:16:22;0.82;;;0.70;;
34924;SDS011;21130;51.728;8.748;2023-04-01T12:18:59;0.50;;;0.50;;
34924;SDS011;21130;51.728;8.748;2023-04-01T12:21:35;2.25;;;0.70;;
34924;SDS011;21130;51.728;8.748;2023-04-01T12:24:13;0.70;;;0.50;;
34924;SDS011;21130;51.728;8.748;2023-04-01T12:26:59;0.75;;;0.60;;
34924;SDS011;21130;51.728;8.748;2023-04-01T12:32:34;0.98;;;0.60;;
34924;SDS011;21130;51.728;8.748;2023-04-01T12:35:14;0.63;;;0.60;;
34924;SDS011;21130;51.728;8.748;2023-04-01T12:37:48;1.00;;;0.60;;
34924;SDS011;21130;51.728;8.748;2023-04-01T12:40:24;0.50;;;0.50;;
34924;SDS011;21130;51.728;8.748;2023-04-01T12:43:05;0.70;;;0.70;;
34924;SDS011;21130;51.728;8.748;2023-04-01T12:45:49;0.70;;;0.70;;
34924;SDS011;21130;51.728;8.748;2023-04-01T12:48:27;0.70;;;0.70;;
34924;SDS011;21130;51.728;8.748;2023-04-01T12:51:10;0.73;;;0.73;;
34924;SDS011;21130;51.728;8.748;2023-04-01T12:57:08;0.90;;;0.90;;
34924;SDS011;21130;51.728;8.748;2023-04-01T13:00:12;1.00;;;1.00;;
34924;SDS011;21130;51.728;8.748;2023-04-01T13:03:16;1.15;;;1.10;;
34924;SDS011;21130;51.728;8.748;2023-04-01T13:06:31;0.93;;;0.93;;
34924;SDS011;21130;51.728;8.748;2023-04-01T13:09:44;1.45;;;1.35;;
34924;SDS011;21130;51.728;8.748;2023-04-01T13:12:49;1.23;;;1.23;;
34924;SDS011;21130;51.728;8.748;2023-04-01T13:15:45;1.50;;;1.40;;
34924;SDS011;21130;51.728;8.748;2023-04-01T13:18:39;1.33;;;1.27;;
34924;SDS011;21130;51.728;8.748;2023-04-01T13:21:47;1.20;;;1.10;;
34924;SDS011;21130;51.728;8.748;2023-04-01T13:24:41;1.42;;;1.33;;
34924;SDS011;21130;51.728;8.748;2023-04-01T13:27:36;1.08;;;1.02;;
34924;SDS011;21130;51.728;8.748;2023-04-01T13:30:29;1.05;;;1.00;;
34924;SDS011;21130;51.728;8.748;2023-04-01T13:33:20;0.90;;;0.90;;
34924;SDS011;21130;51.728;8.748;2023-04-01T13:36:17;1.63;;;1.00;;
34924;SDS011;21130;51.728;8.748;2023-04-01T13:39:24;1.55;;;1.00;;
34924;SDS011;21130;51.728;8.748;2023-04-01T13:42:19;1.15;;;1.00;;
34924;SDS011;21130;51.728;8.748;2023-04-01T13:45:12;0.93;;;0.90;;
34924;SDS011;21130;51.728;8.748;2023-04-01T13:51:19;0.80;;;0.80;;
34924;SDS011;21130;51.728;8.748;2023-04-01T13:57:43;0.70;;;0.70;;
34924;SDS011;21130;51.728;8.748;2023-04-01T14:00:42;1.20;;;0.73;;
34924;SDS011;21130;51.728;8.748;2023-04-01T14:03:42;1.75;;;0.77;;
34924;SDS011;21130;51.728;8.748;2023-04-01T14:06:38;1.00;;;1.00;;
34924;SDS011;21130;51.728;8.748;2023-04-01T14:09:50;2.03;;;1.13;;
34924;SDS011;21130;51.728;8.748;2023-04-01T14:12:54;1.30;;;1.10;;
34924;SDS011;21130;51.728;8.748;2023-04-01T14:19:03;1.08;;;1.08;;
34924;SDS011;21130;51.728;8.748;2023-04-01T14:22:03;2.00;;;0.90;;
34924;SDS011;21130;51.728;8.748;2023-04-01T14:25:12;0.95;;;0.95;;
34924;SDS011;21130;51.728;8.748;2023-04-01T14:28:11;0.90;;;0.90;;
34924;SDS011;21130;51.728;8.748;2023-04-01T14:31:14;1.15;;;1.10;;
34924;SDS011;21130;51.728;8.748;2023-04-01T14:34:11;1.80;;;1.13;;
34924;SDS011;21130;51.728;8.748;2023-04-01T14:37:11;1.40;;;0.93;;
34924;SDS011;21130;51.728;8.748;2023-04-01T14:40:18;1.00;;;1.00;;
34924;SDS011;21130;51.728;8.748;2023-04-01T14:43:14;0.90;;;0.90;;
34924;SDS011;21130;51.728;8.748;2023-04-01T14:46:14;1.08;;;0.93;;
34924;SDS011;21130;51.728;8.748;2023-04-01T14:48:53;1.17;;;1.17;;
34924;SDS011;21130;51.728;8.748;2023-04-01T14:51:43;1.63;;;1.40;;
34924;SDS011;21130;51.728;8.748;2023-04-01T14:54:33;1.45;;;1.35;;
34924;SDS011;21130;51.728;8.748;2023-04-01T14:57:25;1.77;;;1.40;;
34924;SDS011;21130;51.728;8.748;2023-04-01T15:00:13;1.25;;;1.15;;
34924;SDS011;21130;51.728;8.748;2023-04-01T15:03:01;1.88;;;1.45;;
34924;SDS011;21130;51.728;8.748;2023-04-01T15:05:56;1.35;;;1.25;;
34924;SDS011;21130;51.728;8.748;2023-04-01T15:09:00;1.50;;;1.38;;
34924;SDS011;21130;51.728;8.748;2023-04-01T15:11:58;1.40;;;1.30;;
34924;SDS011;21130;51.728;8.748;2023-04-01T15:15:01;1.60;;;1.50;;
34924;SDS011;21130;51.728;8.748;2023-04-01T15:17:58;1.40;;;1.30;;
34924;SDS011;21130;51.728;8.748;2023-04-01T15:20:56;1.95;;;1.70;;
34924;SDS011;21130;51.728;8.748;2023-04-01T15:23:45;1.75;;;1.60;;
34924;SDS011;21130;51.728;8.748;2023-04-01T15:26:25;1.60;;;1.50;;
34924;SDS011;21130;51.728;8.748;2023-04-01T15:29:04;1.70;;;1.60;;
34924;SDS011;21130;51.728;8.748;2023-04-01T15:31:49;2.20;;;1.75;;
34924;SDS011;21130;51.728;8.748;2023-04-01T15:34:26;1.63;;;1.52;;
34924;SDS011;21130;51.728;8.748;2023-04-01T15:37:02;1.60;;;1.50;;
34924;SDS011;21130;51.728;8.748;2023-04-01T15:39:41;1.95;;;1.75;;
34924;SDS011;21130;51.728;8.748;2023-04-01T15:42:21;1.58;;;1.48;;
34924;SDS011;21130;51.728;8.748;2023-04-01T15:45:16;2.45;;;1.73;;
34924;SDS011;21130;51.728;8.748;2023-04-01T15:48:02;2.05;;;1.90;;
34924;SDS011;21130;51.728;8.748;2023-04-01T15:50:48;2.20;;;2.00;;
34924;SDS011;21130;51.728;8.748;2023-04-01T15:53:24;1.60;;;1.50;;
34924;SDS011;21130;51.728;8.748;2023-04-01T15:56:10;1.65;;;1.55;;
34924;SDS011;21130;51.728;8.748;2023-04-01T15:58:49;1.50;;;1.40;;
34924;SDS011;21130;51.728;8.748;2023-04-01T16:01:25;1.52;;;1.42;;
34924;SDS011;21130;51.728;8.748;2023-04-01T16:04:05;1.85;;;1.42;;
34924;SDS011;21130;51.728;8.748;2023-04-01T16:06:58;4.13;;;1.40;;
34924;SDS011;21130;51.728;8.748;2023-04-01T16:09:56;1.70;;;1.58;;
34924;SDS011;21130;51.728;8.748;2023-04-01T16:12:36;2.20;;;1.90;;
34924;SDS011;21130;51.728;8.748;2023-04-01T16:15:17;1.65;;;1.55;;
34924;SDS011;21130;51.728;8.748;2023-04-01T16:17:56;1.70;;;1.60;;
34924;SDS011;21130;51.728;8.748;2023-04-01T16:20:39;2.42;;;1.70;;
34924;SDS011;21130;51.728;8.748;2023-04-01T16:23:12;1.73;;;1.63;;
34924;SDS011;21130;51.728;8.748;2023-04-01T16:28:18;2.50;;;2.10;;
34924;SDS011;21130;51.728;8.748;2023-04-01T16:30:48;2.13;;;1.92;;
34924;SDS011;21130;51.728;8.748;2023-04-01T16:33:24;2.33;;;2.20;;
34924;SDS011;21130;51.728;8.748;2023-04-01T16:36:05;2.20;;;2.10;;
34924;SDS011;21130;51.728;8.748;2023-04-01T16:38:38;2.70;;;2.50;;
34924;SDS011;21130;51.728;8.748;2023-04-01T16:41:14;2.30;;;2.20;;
34924;SDS011;21130;51.728;8.748;2023-04-01T16:43:45;2.70;;;2.50;;
34924;SDS011;21130;51.728;8.748;2023-04-01T16:46:27;2.30;;;2.20;;
34924;SDS011;21130;51.728;8.748;2023-04-01T16:48:58;2.70;;;2.50;;
34924;SDS011;21130;51.728;8.748;2023-04-01T16:51:44;2.60;;;2.40;;
34924;SDS011;21130;51.728;8.748;2023-04-01T16:54:16;2.85;;;2.60;;
34924;SDS011;21130;51.728;8.748;2023-04-01T16:56:54;3.28;;;2.97;;